createdAt,value
2022-10-08T00:04:48.322Z,39.22
2022-10-08T00:09:52.818Z,38.95
2022-10-08T00:14:55.908Z,39.03
2022-10-08T00:20:01.269Z,38.80
2022-10-08T00:25:06.740Z,38.42
2022-10-08T00:30:16.413Z,38.50
2022-10-08T00:35:22.392Z,38.78
2022-10-08T00:40:51.882Z,39.50
2022-10-08T00:45:58.129Z,38.22
2022-10-08T00:51:03.676Z,38.75
2022-10-08T00:56:10.651Z,38.42
2022-10-08T01:01:15.087Z,38.22
2022-10-08T01:06:29.321Z,38.72
2022-10-08T01:11:47.122Z,38.92
2022-10-08T01:16:58.322Z,38.22
2022-10-08T01:22:11.381Z,38.58
2022-10-08T01:27:24.636Z,39.35
2022-10-08T01:32:34.986Z,38.10
2022-10-08T01:37:41.796Z,39.08
2022-10-08T01:42:47.696Z,39.33
2022-10-08T01:47:51.984Z,38.67
2022-10-08T01:52:57.876Z,38.35
2022-10-08T01:58:07.001Z,38.85
2022-10-08T02:03:12.095Z,38.72
2022-10-08T02:08:15.427Z,38.95
2022-10-08T02:13:20.631Z,38.80
2022-10-08T02:18:32.040Z,39.20
2022-10-08T02:23:40.606Z,39.92
2022-10-08T02:28:50.304Z,39.00
2022-10-08T02:33:57.241Z,40.05
2022-10-08T02:39:03.871Z,40.47
2022-10-08T02:44:15.635Z,39.83
2022-10-08T02:49:24.214Z,39.20
2022-10-08T02:54:27.640Z,38.78
2022-10-08T02:59:35.342Z,40.13
2022-10-08T03:04:42.491Z,40.00
2022-10-08T03:09:51.269Z,40.08
2022-10-08T03:14:55.752Z,41.00
2022-10-08T03:19:58.797Z,39.72
2022-10-08T03:25:01.863Z,39.80
2022-10-08T03:30:07.208Z,39.83
2022-10-08T03:35:10.284Z,40.35
2022-10-08T03:40:13.209Z,38.22
2022-10-08T03:45:17.718Z,39.45
2022-10-08T03:50:21.123Z,38.60
2022-10-08T03:55:24.036Z,38.45
2022-10-08T04:00:28.336Z,38.53
2022-10-08T04:05:31.971Z,38.42
2022-10-08T04:10:39.418Z,37.55
2022-10-08T04:15:44.259Z,38.67
2022-10-08T04:20:47.272Z,39.38
2022-10-08T04:25:51.802Z,38.80
2022-10-08T04:31:01.127Z,38.53
2022-10-08T04:36:08.909Z,40.15
2022-10-08T04:41:14.065Z,39.25
2022-10-08T04:46:20.463Z,39.33
2022-10-08T04:51:24.896Z,39.20
2022-10-08T04:56:29.966Z,39.10
2022-10-08T05:01:34.422Z,37.42
2022-10-08T05:06:37.500Z,39.25
2022-10-08T05:11:40.551Z,39.28
2022-10-08T05:16:44.992Z,38.90
2022-10-08T05:21:48.009Z,39.17
2022-10-08T05:26:59.620Z,38.28
2022-10-08T05:32:04.106Z,38.17
2022-10-08T05:37:07.153Z,38.28
2022-10-08T05:42:17.406Z,43.08
2022-10-08T05:47:21.823Z,39.10
2022-10-08T05:52:27.005Z,37.30
2022-10-08T05:57:30.007Z,38.80
2022-10-08T06:02:34.517Z,40.15
2022-10-08T06:07:37.477Z,39.00
2022-10-08T06:12:40.476Z,39.17
2022-10-08T06:17:44.901Z,38.35
2022-10-08T06:23:02.009Z,38.03
2022-10-08T06:28:04.958Z,37.83
2022-10-08T06:33:09.918Z,37.92
2022-10-08T06:38:13.025Z,37.67
2022-10-08T06:43:18.004Z,38.10
2022-10-08T06:48:22.258Z,37.85
2022-10-08T06:53:25.169Z,37.92
2022-10-08T06:58:28.323Z,39.15
2022-10-08T07:03:38.502Z,38.53
2022-10-08T07:08:43.846Z,38.55
2022-10-08T07:13:51.232Z,38.30
2022-10-08T07:18:58.398Z,37.92
2022-10-08T07:24:02.345Z,37.80
2022-10-08T07:29:08.193Z,38.22
2022-10-08T07:34:14.011Z,38.65
2022-10-08T07:39:19.496Z,37.13
2022-10-08T07:44:22.575Z,37.40
2022-10-08T07:49:27.273Z,37.97
2022-10-08T07:54:30.244Z,37.42
2022-10-08T07:59:33.996Z,37.40
2022-10-08T08:04:38.348Z,37.05
2022-10-08T08:09:41.313Z,36.97
2022-10-08T08:14:44.288Z,36.10
2022-10-08T08:19:48.544Z,36.78
2022-10-08T08:24:51.434Z,36.25
2022-10-08T08:29:54.379Z,36.72
2022-10-08T08:34:58.718Z,36.45
2022-10-08T08:40:01.655Z,36.58
2022-10-08T08:45:22.906Z,35.92
2022-10-08T08:50:39.031Z,36.80
2022-10-08T08:55:45.163Z,36.10
2022-10-08T09:00:55.390Z,35.97
2022-10-08T09:06:06.746Z,35.75
2022-10-08T09:11:14.922Z,36.38
2022-10-08T09:16:18.884Z,35.92
2022-10-08T09:21:24.728Z,36.45
2022-10-08T09:26:32.730Z,36.55
2022-10-08T09:37:09.509Z,36.40
2022-10-08T09:37:48.057Z,36.20
2022-10-08T09:48:49.566Z,36.35
2022-10-08T09:53:59.449Z,35.97
2022-10-08T09:59:05.395Z,36.13
2022-10-08T10:04:18.788Z,35.97
2022-10-08T10:09:33.064Z,36.17
2022-10-08T10:14:44.074Z,36.30
2022-10-08T10:19:53.416Z,37.05
2022-10-08T10:25:05.351Z,36.17
2022-10-08T10:30:16.706Z,36.63
2022-10-08T10:35:25.657Z,36.25
2022-10-08T10:40:42.793Z,36.38
2022-10-08T10:45:49.295Z,35.92
2022-10-08T10:51:03.831Z,36.53
2022-10-08T10:56:14.849Z,36.42
2022-10-08T11:01:30.271Z,35.63
2022-10-08T11:07:02.607Z,36.28
2022-10-08T11:12:18.562Z,36.15
2022-10-08T11:17:45.421Z,36.28
2022-10-08T11:22:57.166Z,36.90
2022-10-08T11:28:17.570Z,36.45
2022-10-08T11:33:21.655Z,35.95
2022-10-08T11:38:31.540Z,36.42
2022-10-08T11:43:40.911Z,35.90
2022-10-08T11:48:43.892Z,36.38
2022-10-08T11:54:03.071Z,35.95
2022-10-08T11:59:25.393Z,35.88
2022-10-08T12:04:34.557Z,36.40
2022-10-08T12:10:26.633Z,35.60
2022-10-08T12:16:04.752Z,36.38
2022-10-08T12:21:37.866Z,36.13
2022-10-08T12:27:21.265Z,36.80
2022-10-08T12:32:26.714Z,35.85
2022-10-08T12:37:56.086Z,35.90
2022-10-08T12:43:10.654Z,35.95
2022-10-08T12:48:24.080Z,36.45
2022-10-08T12:53:27.107Z,37.05
2022-10-08T12:58:34.226Z,35.95
2022-10-08T13:03:38.551Z,36.38
2022-10-08T13:08:42.649Z,35.92
2022-10-08T13:13:49.350Z,36.08
2022-10-08T13:18:57.233Z,36.05
2022-10-08T13:24:01.389Z,36.05
2022-10-08T13:29:30.570Z,36.63
2022-10-08T13:34:42.931Z,36.30
2022-10-08T13:39:52.847Z,35.78
2022-10-08T13:44:55.800Z,35.97
2022-10-08T13:50:02.031Z,36.30
2022-10-08T13:55:09.893Z,37.05
2022-10-08T14:00:14.800Z,36.63
2022-10-08T14:05:19.005Z,37.28
2022-10-08T14:10:22.026Z,35.90
2022-10-08T14:15:24.920Z,35.70
2022-10-08T14:20:29.281Z,35.85
2022-10-08T14:25:32.514Z,36.17
2022-10-08T14:30:35.484Z,35.88
2022-10-08T14:35:39.821Z,35.92
2022-10-08T14:40:42.749Z,35.78
2022-10-08T14:45:45.698Z,35.85
2022-10-08T14:50:49.971Z,35.58
2022-10-08T14:56:11.138Z,36.10
2022-10-08T15:01:15.188Z,35.60
2022-10-08T15:06:19.388Z,35.75
2022-10-08T15:11:22.284Z,35.92
2022-10-08T15:16:25.177Z,36.15
2022-10-08T15:21:29.491Z,36.53
2022-10-08T15:26:32.392Z,36.28
2022-10-08T15:31:35.305Z,35.83
2022-10-08T15:36:39.553Z,36.00
2022-10-08T15:41:44.126Z,35.50
2022-10-08T15:46:47.489Z,35.55
2022-10-08T15:52:03.441Z,35.85
2022-10-08T15:57:07.285Z,35.72
2022-10-08T16:02:16.554Z,35.72
2022-10-08T16:07:21.944Z,36.00
2022-10-08T16:12:24.819Z,36.00
2022-10-08T16:17:28.128Z,35.88
2022-10-08T16:22:32.325Z,36.08
2022-10-08T16:27:35.211Z,35.78
2022-10-08T16:32:38.079Z,36.65
2022-10-08T16:37:42.471Z,36.58
2022-10-08T16:42:45.753Z,37.08
2022-10-08T16:47:48.842Z,38.08
2022-10-08T16:52:53.120Z,36.17
2022-10-08T16:57:56.015Z,36.80
2022-10-08T17:02:59.005Z,36.63
2022-10-08T17:08:03.300Z,36.40
2022-10-08T17:13:06.231Z,36.47
2022-10-08T17:18:09.184Z,36.65
2022-10-08T17:23:37.986Z,36.75
2022-10-08T17:28:44.018Z,36.38
2022-10-08T17:33:47.248Z,35.85
2022-10-08T17:38:52.929Z,36.63
2022-10-08T17:43:56.699Z,35.80
2022-10-08T17:48:59.791Z,35.92
2022-10-08T17:54:06.109Z,35.92
2022-10-08T17:59:09.546Z,36.40
2022-10-08T18:04:15.374Z,35.85
2022-10-08T18:09:21.348Z,36.28
2022-10-08T18:14:25.318Z,36.03
2022-10-08T18:19:28.753Z,35.70
2022-10-08T18:24:34.662Z,35.65
2022-10-08T18:29:37.523Z,35.53
2022-10-08T18:35:03.472Z,35.35
2022-10-08T18:40:21.431Z,35.30
2022-10-08T18:45:31.800Z,36.38
2022-10-08T18:56:46.407Z,35.60
2022-10-08T19:07:24.191Z,35.22
2022-10-08T19:13:01.173Z,35.00
2022-10-08T19:18:14.825Z,36.10
2022-10-08T19:23:20.812Z,35.05
2022-10-08T19:28:30.106Z,35.05
2022-10-08T19:33:33.378Z,36.40
2022-10-08T19:38:47.232Z,35.25
2022-10-08T19:44:06.458Z,35.05
2022-10-08T19:49:15.317Z,35.38
2022-10-08T19:54:20.900Z,34.83
2022-10-08T19:59:25.481Z,35.22
2022-10-08T20:04:34.662Z,35.05
2022-10-08T20:10:00.409Z,34.92
2022-10-08T20:15:22.603Z,35.10
2022-10-08T20:20:34.248Z,37.35
2022-10-08T20:25:46.447Z,34.78
2022-10-08T20:30:50.967Z,35.05
2022-10-08T20:35:54.057Z,34.78
2022-10-08T20:40:59.925Z,35.00
2022-10-08T20:46:37.242Z,34.65
2022-10-08T20:51:49.552Z,35.05
2022-10-08T20:56:53.673Z,35.63
2022-10-08T21:01:58.169Z,35.00
2022-10-08T21:07:01.100Z,34.35
2022-10-08T21:12:04.095Z,35.33
2022-10-08T21:17:08.352Z,35.05
2022-10-08T21:22:23.158Z,35.65
2022-10-08T21:27:26.637Z,36.90
2022-10-08T21:32:30.895Z,35.88
2022-10-08T21:37:33.772Z,35.78
2022-10-08T21:42:36.907Z,35.65
2022-10-08T21:47:41.108Z,35.25
2022-10-08T21:52:43.995Z,35.33
2022-10-08T21:57:47.008Z,35.30
2022-10-08T22:02:51.577Z,36.17
2022-10-08T22:07:54.642Z,35.45
2022-10-08T22:12:57.519Z,36.88
2022-10-08T22:18:01.762Z,36.17
2022-10-08T22:23:06.063Z,35.95
2022-10-08T22:28:09.359Z,35.42
2022-10-08T22:33:13.750Z,34.97
2022-10-08T22:38:16.755Z,34.80
2022-10-08T22:43:19.630Z,37.47
2022-10-08T22:48:23.895Z,37.28
2022-10-08T22:53:26.773Z,36.42
2022-10-08T22:58:29.634Z,35.50
2022-10-08T23:03:34.492Z,36.47
2022-10-08T23:08:37.460Z,35.28
2022-10-08T23:13:40.625Z,36.45
2022-10-08T23:18:46.514Z,35.47
2022-10-08T23:23:50.202Z,35.38
2022-10-08T23:28:55.276Z,34.67
2022-10-08T23:34:00.046Z,34.75
2022-10-08T23:39:03.475Z,35.05
2022-10-08T23:44:06.472Z,34.78
2022-10-08T23:49:10.820Z,34.70
2022-10-08T23:54:13.727Z,34.60
2022-10-08T23:59:16.579Z,34.72
